createdAt,value
2022-12-18T00:01:33.018Z,36.04
2022-12-18T00:03:59.389Z,35.74
2022-12-18T00:06:25.723Z,36.44
2022-12-18T00:08:52.012Z,35.82
2022-12-18T00:11:18.284Z,36.04
2022-12-18T00:13:44.535Z,36.15
2022-12-18T00:16:10.890Z,35.98
2022-12-18T00:18:37.581Z,36.40
2022-12-18T00:21:04.048Z,36.50
2022-12-18T00:23:30.318Z,36.21
2022-12-18T00:25:56.580Z,35.55
2022-12-18T00:28:22.879Z,35.75
2022-12-18T00:30:49.144Z,36.25
2022-12-18T00:33:15.404Z,36.14
2022-12-18T00:35:41.694Z,35.23
2022-12-18T00:38:08.076Z,36.17
2022-12-18T00:40:34.327Z,36.39
2022-12-18T00:43:00.574Z,36.95
2022-12-18T00:45:26.867Z,36.52
2022-12-18T00:47:53.261Z,35.84
2022-12-18T00:50:19.511Z,35.60
2022-12-18T00:52:45.749Z,36.50
2022-12-18T00:55:11.993Z,36.23
2022-12-18T00:57:38.272Z,36.46
2022-12-18T01:00:04.873Z,36.24
2022-12-18T01:02:31.208Z,36.87
2022-12-18T01:04:57.559Z,36.33
2022-12-18T01:07:23.838Z,36.75
2022-12-18T01:09:50.097Z,37.02
2022-12-18T01:12:16.361Z,37.46
2022-12-18T01:14:42.617Z,36.01
2022-12-18T01:17:08.858Z,36.54
2022-12-18T01:19:35.128Z,36.27
2022-12-18T01:22:01.388Z,37.71
2022-12-18T01:24:27.682Z,36.96
2022-12-18T01:26:53.935Z,36.73
2022-12-18T01:29:20.377Z,37.77
2022-12-18T01:31:46.766Z,37.54
2022-12-18T01:34:13.169Z,38.24
2022-12-18T01:36:39.452Z,37.32
2022-12-18T01:39:05.716Z,36.90
2022-12-18T01:41:31.951Z,35.71
2022-12-18T01:43:58.302Z,36.93
2022-12-18T01:46:24.604Z,37.05
2022-12-18T01:48:50.858Z,37.58
2022-12-18T01:51:17.113Z,38.32
2022-12-18T01:53:43.376Z,38.35
2022-12-18T01:56:10.248Z,38.94
2022-12-18T01:58:36.535Z,38.98
2022-12-18T02:01:02.806Z,38.38
2022-12-18T02:03:29.168Z,36.85
2022-12-18T02:05:55.569Z,37.56
2022-12-18T02:08:21.871Z,36.21
2022-12-18T02:10:48.156Z,35.89
2022-12-18T02:13:14.430Z,36.33
2022-12-18T02:15:40.687Z,37.13
2022-12-18T02:18:06.960Z,36.43
2022-12-18T02:20:33.222Z,36.52
2022-12-18T02:22:59.495Z,36.11
2022-12-18T02:25:25.760Z,35.34
2022-12-18T02:27:52.201Z,35.74
2022-12-18T02:30:18.701Z,37.07
2022-12-18T02:32:44.961Z,36.50
2022-12-18T02:35:11.241Z,36.90
2022-12-18T02:37:37.495Z,36.26
2022-12-18T02:40:03.741Z,35.24
2022-12-18T02:42:30.002Z,35.87
2022-12-18T02:44:56.264Z,35.75
2022-12-18T02:47:22.513Z,35.48
2022-12-18T02:49:48.793Z,34.30
2022-12-18T02:52:15.040Z,34.94
2022-12-18T02:54:41.313Z,35.47
2022-12-18T02:57:07.576Z,35.25
2022-12-18T02:59:33.855Z,34.77
2022-12-18T03:02:00.497Z,36.13
2022-12-18T03:04:26.887Z,34.58
2022-12-18T03:06:53.140Z,35.19
2022-12-18T03:09:19.390Z,36.51
2022-12-18T03:11:45.642Z,35.14
2022-12-18T03:14:11.903Z,34.90
2022-12-18T03:16:38.185Z,35.66
2022-12-18T03:19:04.482Z,35.01
2022-12-18T03:21:30.747Z,34.90
2022-12-18T03:23:57.010Z,35.39
2022-12-18T03:26:23.288Z,35.48
2022-12-18T03:28:49.572Z,35.06
2022-12-18T03:31:15.917Z,36.55
2022-12-18T03:33:42.609Z,35.82
2022-12-18T03:36:09.362Z,35.03
2022-12-18T03:38:35.611Z,34.61
2022-12-18T03:41:01.879Z,34.91
2022-12-18T03:43:28.187Z,35.02
2022-12-18T03:45:54.459Z,35.71
2022-12-18T03:48:20.713Z,36.30
2022-12-18T03:50:46.980Z,35.91
2022-12-18T03:53:13.246Z,36.70
2022-12-18T03:55:39.501Z,36.29
2022-12-18T03:58:05.759Z,36.44
2022-12-18T04:00:32.020Z,36.55
2022-12-18T04:02:58.272Z,37.56
2022-12-18T04:05:24.521Z,36.88
2022-12-18T04:07:50.817Z,36.38
2022-12-18T04:10:17.087Z,37.27
2022-12-18T04:12:43.396Z,36.64
2022-12-18T04:15:09.656Z,36.90
2022-12-18T04:17:35.920Z,36.48
2022-12-18T04:20:02.203Z,36.90
2022-12-18T04:22:28.481Z,36.54
2022-12-18T04:24:54.757Z,37.42
2022-12-18T04:27:21.013Z,37.04
2022-12-18T04:29:47.284Z,36.32
2022-12-18T04:32:13.564Z,36.84
2022-12-18T04:34:39.834Z,37.25
2022-12-18T04:37:06.109Z,37.48
2022-12-18T04:39:32.367Z,36.43
2022-12-18T04:41:58.618Z,36.85
2022-12-18T04:44:24.893Z,36.76
2022-12-18T04:46:51.196Z,37.00
2022-12-18T04:49:17.529Z,37.34
2022-12-18T04:51:43.782Z,36.21
2022-12-18T04:54:10.028Z,37.07
2022-12-18T04:56:36.291Z,36.16
2022-12-18T04:59:02.559Z,36.39
2022-12-18T05:01:34.374Z,36.75
2022-12-18T05:04:01.235Z,35.52
2022-12-18T05:06:27.510Z,36.39
2022-12-18T05:08:53.780Z,35.99
2022-12-18T05:11:20.058Z,35.29
2022-12-18T05:13:46.370Z,35.05
2022-12-18T05:16:12.691Z,35.98
2022-12-18T05:18:39.004Z,35.18
2022-12-18T05:21:05.258Z,35.70
2022-12-18T05:23:31.521Z,35.18
2022-12-18T05:25:57.789Z,35.59
2022-12-18T05:28:24.091Z,34.98
2022-12-18T05:30:50.378Z,34.97
2022-12-18T05:33:16.664Z,34.93
2022-12-18T05:35:42.942Z,34.49
2022-12-18T05:38:09.220Z,35.41
2022-12-18T05:40:35.491Z,36.79
2022-12-18T05:43:01.783Z,35.88
2022-12-18T05:45:28.042Z,35.34
2022-12-18T05:47:54.316Z,34.48
2022-12-18T05:50:21.245Z,35.25
2022-12-18T05:52:47.501Z,35.02
2022-12-18T05:55:13.748Z,35.14
2022-12-18T05:57:40.005Z,35.01
2022-12-18T06:00:06.278Z,35.63
2022-12-18T06:02:32.594Z,35.96
2022-12-18T06:04:58.888Z,34.75
2022-12-18T06:07:25.141Z,35.20
2022-12-18T06:09:51.415Z,35.77
2022-12-18T06:12:17.694Z,35.30
2022-12-18T06:14:43.952Z,35.06
2022-12-18T06:17:10.210Z,34.33
2022-12-18T06:19:36.480Z,34.15
2022-12-18T06:22:02.727Z,33.62
2022-12-18T06:24:28.994Z,34.27
2022-12-18T06:26:55.518Z,33.89
2022-12-18T06:29:21.763Z,32.65
2022-12-18T06:31:48.083Z,33.66
2022-12-18T06:34:14.446Z,33.74
2022-12-18T06:36:40.739Z,33.84
2022-12-18T06:39:06.983Z,34.00
2022-12-18T06:41:33.653Z,33.50
2022-12-18T06:44:00.294Z,33.17
2022-12-18T06:46:26.677Z,33.62
2022-12-18T06:48:52.963Z,34.64
2022-12-18T06:51:19.222Z,34.30
2022-12-18T06:53:45.501Z,33.83
2022-12-18T06:56:11.776Z,33.33
2022-12-18T06:58:38.044Z,33.18
2022-12-18T07:01:04.362Z,33.88
2022-12-18T07:03:30.645Z,33.15
2022-12-18T07:05:56.904Z,33.87
2022-12-18T07:08:23.162Z,32.65
2022-12-18T07:10:52.904Z,33.99
2022-12-18T07:13:22.271Z,33.36
2022-12-18T07:15:48.556Z,33.31
2022-12-18T07:18:14.827Z,34.28
2022-12-18T07:20:41.618Z,34.14
2022-12-18T07:23:07.901Z,33.45
2022-12-18T07:25:34.177Z,33.73
2022-12-18T07:28:00.432Z,33.36
2022-12-18T07:30:26.674Z,33.65
2022-12-18T07:32:52.930Z,33.75
2022-12-18T07:35:23.373Z,33.34
2022-12-18T07:37:51.145Z,33.11
2022-12-18T07:40:17.413Z,34.48
2022-12-18T07:42:43.700Z,34.97
2022-12-18T07:45:09.965Z,34.12
2022-12-18T07:47:36.252Z,34.26
2022-12-18T07:50:02.502Z,34.86
2022-12-18T07:52:28.756Z,36.54
2022-12-18T07:54:55.036Z,37.19
2022-12-18T07:57:48.809Z,35.77
2022-12-18T08:00:07.548Z,34.28
2022-12-18T08:02:33.989Z,34.63
2022-12-18T08:05:01.021Z,34.22
2022-12-18T08:07:27.310Z,33.45
2022-12-18T08:09:53.578Z,34.46
2022-12-18T08:12:19.970Z,34.17
2022-12-18T08:14:46.216Z,35.14
2022-12-18T08:17:12.469Z,34.06
2022-12-18T08:19:38.769Z,34.46
2022-12-18T08:22:05.042Z,34.23
2022-12-18T08:24:31.325Z,34.21
2022-12-18T08:27:27.974Z,34.38
2022-12-18T08:29:43.829Z,34.14
2022-12-18T08:32:10.103Z,33.90
2022-12-18T08:34:36.368Z,34.42
2022-12-18T08:37:02.641Z,35.12
2022-12-18T08:39:28.914Z,35.43
2022-12-18T08:41:55.223Z,34.61
2022-12-18T08:44:21.504Z,35.13
2022-12-18T08:46:47.770Z,34.32
2022-12-18T08:49:14.107Z,35.31
2022-12-18T08:51:40.350Z,36.03
2022-12-18T08:54:06.730Z,34.61
2022-12-18T08:56:33.067Z,34.54
2022-12-18T08:58:59.323Z,34.03
2022-12-18T09:01:25.974Z,34.75
2022-12-18T09:03:52.453Z,34.70
2022-12-18T09:06:19.176Z,33.41
2022-12-18T09:08:45.713Z,34.22
2022-12-18T09:11:12.010Z,34.63
2022-12-18T09:13:38.585Z,34.40
2022-12-18T09:16:05.131Z,34.14
2022-12-18T09:18:31.377Z,33.57
2022-12-18T09:24:08.864Z,32.51
2022-12-18T09:26:35.469Z,34.27
2022-12-18T09:29:01.777Z,32.86
2022-12-18T09:31:28.050Z,34.01
2022-12-18T09:33:54.462Z,33.78
2022-12-18T09:36:20.729Z,32.54
2022-12-18T09:38:48.089Z,33.14
2022-12-18T09:41:14.353Z,33.58
2022-12-18T09:43:40.619Z,34.33
2022-12-18T09:46:06.922Z,33.20
2022-12-18T09:48:33.192Z,33.05
2022-12-18T09:50:59.452Z,32.99
2022-12-18T09:53:25.771Z,33.66
2022-12-18T09:55:52.041Z,33.25
2022-12-18T09:58:18.312Z,32.79
2022-12-18T10:00:44.578Z,33.00
2022-12-18T10:03:12.188Z,32.72
2022-12-18T10:05:38.572Z,33.58
2022-12-18T10:08:04.846Z,34.03
2022-12-18T10:10:31.105Z,33.83
2022-12-18T10:13:04.058Z,32.08
2022-12-18T10:15:30.932Z,32.16
2022-12-18T10:17:57.297Z,32.47
2022-12-18T10:20:23.577Z,31.38
2022-12-18T10:22:49.872Z,31.00
2022-12-18T10:25:16.121Z,31.04
2022-12-18T10:27:42.382Z,30.24
2022-12-18T10:30:10.432Z,30.49
2022-12-18T10:32:36.735Z,30.63
2022-12-18T10:35:03.029Z,30.18
2022-12-18T10:37:29.279Z,29.99
2022-12-18T10:39:55.552Z,28.79
2022-12-18T10:42:21.805Z,28.95
2022-12-18T10:44:48.067Z,28.56
2022-12-18T10:47:14.422Z,28.78
2022-12-18T10:49:40.808Z,29.35
2022-12-18T10:52:07.098Z,28.98
2022-12-18T10:54:33.526Z,28.98
2022-12-18T10:56:59.787Z,28.26
2022-12-18T10:59:26.054Z,28.11
2022-12-18T11:01:52.451Z,27.19
2022-12-18T11:04:18.831Z,27.87
2022-12-18T11:06:45.095Z,27.48
2022-12-18T11:09:12.848Z,27.11
2022-12-18T11:11:40.833Z,28.65
2022-12-18T11:14:07.102Z,27.80
2022-12-18T11:16:33.460Z,27.48
2022-12-18T11:18:59.720Z,27.10
2022-12-18T11:21:25.976Z,27.01
2022-12-18T11:23:52.266Z,26.66
2022-12-18T11:26:18.546Z,26.75
2022-12-18T11:28:45.291Z,27.69
2022-12-18T11:31:12.112Z,26.74
2022-12-18T11:33:38.389Z,27.30
2022-12-18T11:36:04.660Z,26.82
2022-12-18T11:38:30.948Z,27.33
2022-12-18T11:40:57.264Z,26.53
2022-12-18T11:43:23.552Z,27.23
2022-12-18T11:45:49.879Z,26.10
2022-12-18T11:48:16.153Z,25.97
2022-12-18T11:50:42.427Z,27.12
2022-12-18T11:53:08.694Z,26.76
2022-12-18T11:55:34.975Z,26.56
2022-12-18T11:58:01.669Z,27.57
2022-12-18T12:00:27.959Z,27.48
2022-12-18T12:02:54.235Z,27.13
2022-12-18T12:05:20.542Z,28.24
2022-12-18T12:07:46.813Z,27.81
2022-12-18T12:10:13.069Z,27.63
2022-12-18T12:12:41.824Z,28.44
2022-12-18T12:15:11.501Z,28.20
2022-12-18T12:17:37.763Z,27.90
2022-12-18T12:20:04.022Z,27.85
2022-12-18T12:22:30.275Z,27.55
2022-12-18T12:24:56.529Z,26.84
2022-12-18T12:27:22.785Z,26.37
2022-12-18T12:29:49.050Z,26.32
2022-12-18T12:32:15.351Z,26.32
2022-12-18T12:34:41.645Z,26.49
2022-12-18T12:37:07.906Z,25.93
2022-12-18T12:39:34.176Z,26.75
2022-12-18T12:42:00.437Z,26.31
2022-12-18T12:44:26.703Z,25.90
2022-12-18T12:46:52.965Z,27.07
2022-12-18T12:49:19.297Z,26.64
2022-12-18T12:51:45.808Z,26.97
2022-12-18T12:54:13.326Z,26.99
2022-12-18T12:56:39.579Z,27.55
2022-12-18T12:59:05.847Z,26.80
2022-12-18T13:01:32.937Z,26.80
2022-12-18T13:04:00.149Z,26.37
2022-12-18T13:06:26.420Z,26.41
2022-12-18T13:08:52.694Z,26.14
2022-12-18T13:11:18.956Z,26.17
2022-12-18T13:13:46.443Z,27.16
2022-12-18T13:16:13.270Z,26.97
2022-12-18T13:18:39.952Z,26.22
2022-12-18T13:21:07.609Z,26.54
2022-12-18T13:23:33.885Z,27.46
2022-12-18T13:26:00.325Z,26.48
2022-12-18T13:28:26.706Z,26.32
2022-12-18T13:30:53.767Z,26.56
2022-12-18T13:33:23.415Z,26.75
2022-12-18T13:35:49.724Z,26.45
2022-12-18T13:38:16.142Z,27.14
2022-12-18T13:40:43.735Z,26.22
2022-12-18T13:43:10.322Z,25.63
2022-12-18T13:45:37.627Z,25.54
2022-12-18T13:48:03.996Z,26.05
2022-12-18T13:50:36.117Z,26.33
2022-12-18T13:53:02.720Z,26.85
2022-12-18T13:55:29.073Z,25.72
2022-12-18T13:57:55.334Z,25.77
2022-12-18T14:00:22.535Z,24.84
2022-12-18T14:02:49.095Z,26.37
2022-12-18T14:05:15.390Z,26.63
2022-12-18T14:07:41.881Z,26.63
2022-12-18T14:10:41.836Z,27.03
2022-12-18T14:12:56.353Z,26.91
2022-12-18T14:15:22.924Z,27.41
2022-12-18T14:17:49.294Z,27.41
2022-12-18T14:20:15.550Z,27.25
2022-12-18T14:22:41.815Z,26.80
2022-12-18T14:25:08.059Z,27.47
2022-12-18T14:27:34.336Z,27.37
2022-12-18T14:30:00.588Z,27.95
2022-12-18T14:32:26.837Z,29.02
2022-12-18T14:34:53.128Z,29.42
2022-12-18T14:37:19.401Z,29.76
2022-12-18T14:39:45.662Z,29.81
2022-12-18T14:42:11.922Z,30.50
2022-12-18T14:44:50.648Z,30.04
2022-12-18T14:47:24.415Z,31.38
2022-12-18T14:49:50.774Z,31.75
2022-12-18T14:52:17.124Z,30.76
2022-12-18T14:54:43.377Z,31.61
2022-12-18T14:57:09.641Z,31.32
2022-12-18T14:59:36.642Z,32.92
2022-12-18T15:02:03.128Z,31.84
2022-12-18T15:04:30.569Z,32.62
2022-12-18T15:06:56.819Z,33.78
2022-12-18T15:09:23.078Z,32.88
2022-12-18T15:11:49.392Z,32.90
2022-12-18T15:14:15.845Z,31.91
2022-12-18T15:16:46.142Z,31.78
2022-12-18T15:19:12.604Z,32.23
2022-12-18T15:21:38.879Z,32.73
2022-12-18T15:24:05.222Z,33.19
2022-12-18T15:26:31.471Z,33.06
2022-12-18T15:28:57.752Z,34.58
2022-12-18T15:31:24.112Z,35.79
2022-12-18T15:33:50.453Z,35.32
2022-12-18T15:36:16.716Z,34.66
2022-12-18T15:38:45.267Z,34.71
2022-12-18T15:41:14.200Z,34.48
2022-12-18T15:43:41.062Z,34.78
2022-12-18T15:46:07.746Z,34.83
2022-12-18T15:48:34.044Z,36.18
2022-12-18T15:51:00.322Z,35.22
2022-12-18T15:53:26.578Z,33.02
2022-12-18T15:55:56.542Z,35.42
2022-12-18T15:58:27.076Z,38.14
2022-12-18T16:00:53.343Z,39.73
2022-12-18T16:03:19.733Z,41.06
2022-12-18T16:05:46.161Z,37.97
2022-12-18T16:08:12.450Z,37.12
2022-12-18T16:10:38.720Z,38.32
2022-12-18T16:13:05.001Z,35.92
2022-12-18T16:15:31.307Z,36.49
2022-12-18T16:17:57.589Z,35.87
2022-12-18T16:20:23.858Z,34.22
2022-12-18T16:22:50.138Z,34.74
2022-12-18T16:25:16.404Z,34.90
2022-12-18T16:27:42.693Z,34.26
2022-12-18T16:30:10.346Z,34.83
2022-12-18T16:32:36.614Z,34.84
2022-12-18T16:35:02.904Z,34.65
2022-12-18T16:37:29.266Z,35.97
2022-12-18T16:39:55.565Z,35.23
2022-12-18T16:42:21.839Z,36.14
2022-12-18T16:44:48.138Z,36.87
2022-12-18T16:47:15.050Z,36.52
2022-12-18T16:49:41.787Z,36.46
2022-12-18T16:52:08.106Z,37.12
2022-12-18T16:54:34.360Z,36.96
2022-12-18T16:57:00.627Z,37.32
2022-12-18T16:59:26.983Z,36.22
2022-12-18T17:01:54.366Z,35.66
2022-12-18T17:04:20.722Z,37.60
2022-12-18T17:06:47.004Z,38.44
2022-12-18T17:09:13.302Z,37.74
2022-12-18T17:11:39.568Z,38.45
2022-12-18T17:14:05.907Z,38.02
2022-12-18T17:16:32.230Z,37.15
2022-12-18T17:18:59.795Z,37.10
2022-12-18T17:21:26.135Z,36.62
2022-12-18T17:23:52.410Z,36.54
2022-12-18T17:26:18.696Z,37.10
2022-12-18T17:28:45.026Z,39.07
2022-12-18T17:31:11.478Z,42.34
2022-12-18T17:33:38.210Z,48.61
2022-12-18T17:36:04.731Z,37.87
2022-12-18T17:38:30.994Z,36.02
2022-12-18T17:40:57.293Z,37.27
2022-12-18T17:43:23.545Z,38.91
2022-12-18T17:45:49.809Z,41.48
2022-12-18T17:48:16.077Z,42.67
2022-12-18T17:50:42.357Z,45.31
2022-12-18T17:53:08.633Z,43.54
2022-12-18T17:55:34.916Z,45.60
2022-12-18T17:58:01.247Z,47.29
2022-12-18T18:00:27.608Z,44.64
2022-12-18T18:02:54.059Z,43.15
2022-12-18T18:05:20.400Z,39.39
2022-12-18T18:07:47.870Z,38.67
2022-12-18T18:10:14.129Z,43.82
2022-12-18T18:12:40.379Z,43.83
2022-12-18T18:15:06.756Z,41.82
2022-12-18T18:17:33.019Z,41.18
2022-12-18T18:19:59.293Z,39.16
2022-12-18T18:22:25.569Z,39.35
2022-12-18T18:24:52.223Z,38.80
2022-12-18T18:27:18.498Z,39.72
2022-12-18T18:29:44.800Z,38.37
2022-12-18T18:32:11.046Z,39.27
2022-12-18T18:34:37.321Z,39.48
2022-12-18T18:37:03.948Z,39.38
2022-12-18T18:39:30.237Z,39.61
2022-12-18T18:41:56.502Z,39.34
2022-12-18T18:44:24.868Z,39.19
2022-12-18T18:46:52.523Z,39.53
2022-12-18T18:49:18.795Z,38.95
2022-12-18T18:51:45.081Z,40.14
2022-12-18T18:54:11.352Z,41.53
2022-12-18T18:59:25.027Z,42.89
2022-12-18T19:01:58.545Z,47.53
2022-12-18T19:04:24.942Z,48.66
2022-12-18T19:06:51.225Z,44.96
2022-12-18T19:09:18.072Z,43.14
2022-12-18T19:11:44.322Z,41.40
2022-12-18T19:14:10.724Z,41.90
2022-12-18T19:16:37.054Z,42.63
2022-12-18T19:19:03.581Z,43.53
2022-12-18T19:21:31.141Z,44.19
2022-12-18T19:23:59.695Z,44.13
2022-12-18T19:26:28.234Z,44.78
2022-12-18T19:28:55.048Z,44.88
2022-12-18T19:31:25.413Z,44.90
2022-12-18T19:33:53.426Z,44.43
2022-12-18T19:36:19.713Z,47.25
2022-12-18T19:38:46.148Z,48.29
2022-12-18T19:41:12.608Z,49.01
2022-12-18T19:43:40.144Z,47.55
2022-12-18T19:46:06.416Z,44.61
2022-12-18T19:48:32.751Z,42.24
2022-12-18T19:50:59.025Z,41.91
2022-12-18T19:53:25.401Z,43.40
2022-12-18T19:55:51.685Z,52.11
2022-12-18T19:58:17.932Z,51.78
2022-12-18T20:00:46.804Z,45.90
2022-12-18T20:03:24.259Z,45.15
2022-12-18T20:05:53.550Z,47.52
2022-12-18T20:08:19.806Z,48.44
2022-12-18T20:10:46.074Z,46.01
2022-12-18T20:13:12.421Z,43.44
2022-12-18T20:15:45.146Z,45.67
2022-12-18T20:18:11.841Z,47.57
2022-12-18T20:20:38.272Z,46.07
2022-12-18T20:23:04.563Z,43.63
2022-12-18T20:25:30.812Z,44.00
2022-12-18T20:27:57.069Z,41.39
2022-12-18T20:30:23.885Z,42.74
2022-12-18T20:32:50.148Z,44.65
2022-12-18T20:35:16.441Z,45.10
2022-12-18T20:37:46.085Z,44.99
2022-12-18T20:40:15.066Z,43.66
2022-12-18T20:42:41.342Z,42.97
2022-12-18T20:45:07.594Z,43.69
2022-12-18T20:47:33.842Z,47.82
2022-12-18T20:50:00.106Z,48.44
2022-12-18T20:52:26.423Z,46.67
2022-12-18T20:54:52.693Z,45.94
2022-12-18T20:57:18.962Z,42.78
2022-12-18T20:59:48.329Z,43.37
2022-12-18T21:02:14.998Z,43.26
2022-12-18T21:04:41.357Z,44.41
2022-12-18T21:07:07.631Z,43.64
2022-12-18T21:09:38.056Z,43.83
2022-12-18T21:12:04.862Z,42.73
2022-12-18T21:14:31.110Z,40.50
2022-12-18T21:16:57.442Z,40.58
2022-12-18T21:19:23.806Z,41.78
2022-12-18T21:21:50.106Z,40.57
2022-12-18T21:24:16.415Z,40.23
2022-12-18T21:26:45.768Z,39.12
2022-12-18T21:29:12.652Z,41.99
2022-12-18T21:31:38.942Z,44.39
2022-12-18T21:34:05.261Z,43.91
2022-12-18T21:36:31.546Z,41.14
2022-12-18T21:38:58.368Z,40.57
2022-12-18T21:41:24.774Z,40.77
2022-12-18T21:43:51.330Z,40.78
2022-12-18T21:46:17.678Z,40.79
2022-12-18T21:48:43.972Z,40.98
2022-12-18T21:51:10.351Z,41.02
2022-12-18T21:53:36.689Z,40.67
2022-12-18T21:56:02.964Z,39.66
2022-12-18T21:58:29.223Z,39.29
2022-12-18T22:00:55.473Z,39.46
2022-12-18T22:03:21.892Z,39.27
2022-12-18T22:05:50.581Z,39.46
2022-12-18T22:08:33.790Z,39.29
2022-12-18T22:11:00.118Z,40.67
2022-12-18T22:13:26.404Z,41.19
2022-12-18T22:15:52.680Z,40.42
2022-12-18T22:18:18.962Z,41.48
2022-12-18T22:20:45.267Z,41.13
2022-12-18T22:23:11.529Z,40.13
2022-12-18T22:25:38.931Z,39.76
2022-12-18T22:28:06.100Z,39.20
2022-12-18T22:30:32.396Z,39.60
2022-12-18T22:32:59.205Z,38.88
2022-12-18T22:35:25.454Z,39.15
2022-12-18T22:37:51.703Z,40.35
2022-12-18T22:40:22.254Z,39.73
2022-12-18T22:42:50.517Z,40.06
2022-12-18T22:45:18.818Z,39.62
2022-12-18T22:47:45.103Z,39.77
2022-12-18T22:50:11.355Z,38.98
2022-12-18T22:52:37.631Z,39.51
2022-12-18T22:55:03.913Z,39.31
2022-12-18T22:57:32.735Z,38.60
2022-12-18T23:00:00.086Z,39.12
2022-12-18T23:02:26.520Z,38.80
2022-12-18T23:04:52.930Z,39.06
2022-12-18T23:07:19.198Z,39.70
2022-12-18T23:09:45.578Z,39.26
2022-12-18T23:12:13.486Z,38.92
2022-12-18T23:14:39.753Z,41.20
2022-12-18T23:17:06.010Z,44.16
2022-12-18T23:19:32.278Z,41.55
2022-12-18T23:21:58.531Z,40.93
2022-12-18T23:24:24.767Z,41.98
2022-12-18T23:26:51.016Z,42.00
2022-12-18T23:29:17.285Z,41.28
2022-12-18T23:31:43.634Z,41.65
2022-12-18T23:34:10.076Z,39.67
2022-12-18T23:36:45.627Z,38.92
2022-12-18T23:39:15.488Z,38.91
2022-12-18T23:41:55.492Z,37.20
2022-12-18T23:44:21.765Z,38.09
2022-12-18T23:46:48.049Z,38.12
2022-12-18T23:49:14.305Z,38.59
2022-12-18T23:51:40.590Z,37.92
2022-12-18T23:54:06.842Z,37.64
2022-12-18T23:56:33.107Z,38.73
2022-12-18T23:58:59.373Z,37.68
